createdAt,value
2018-10-07T00:01:38.541Z,98283.86
2018-10-07T00:04:09.062Z,98287.77
2018-10-07T00:06:39.633Z,98278.95
2018-10-07T00:09:10.320Z,98273.84
2018-10-07T00:11:40.841Z,98270.77
2018-10-07T00:14:11.414Z,98266.92
2018-10-07T00:16:41.912Z,98261.86
2018-10-07T00:19:16.895Z,98268.98
2018-10-07T00:21:47.370Z,98249.53
2018-10-07T00:24:17.782Z,98263.29
2018-10-07T00:26:48.302Z,98252.28
2018-10-07T00:29:18.793Z,98249.39
2018-10-07T00:31:54.871Z,98246.06
2018-10-07T00:34:25.351Z,98246.65
2018-10-07T00:36:55.818Z,98243.33
2018-10-07T00:39:26.313Z,98239.51
2018-10-07T00:41:56.848Z,98238.27
2018-10-07T00:44:27.302Z,98236.19
2018-10-07T00:46:57.849Z,98236.62
2018-10-07T00:49:28.446Z,98237.86
2018-10-07T00:51:58.926Z,98236.86
2018-10-07T00:54:29.460Z,98229.92
2018-10-07T00:56:59.868Z,98227.26
2018-10-07T00:59:30.501Z,98226.73
2018-10-07T01:02:01.054Z,98225.06
2018-10-07T01:04:31.497Z,98225.34
2018-10-07T01:07:02.162Z,98222.60
2018-10-07T01:09:32.537Z,98212.34
2018-10-07T01:12:03.002Z,98215.93
2018-10-07T01:14:33.469Z,98209.02
2018-10-07T01:17:03.924Z,98204.02
2018-10-07T01:19:34.515Z,98201.56
2018-10-07T01:22:05.068Z,98204.48
2018-10-07T01:24:35.581Z,98196.08
2018-10-07T01:27:06.329Z,98201.42
2018-10-07T01:29:36.801Z,98202.47
2018-10-07T01:32:07.425Z,98198.65
2018-10-07T01:34:37.922Z,98191.17
2018-10-07T01:37:08.508Z,98184.17
2018-10-07T01:39:38.929Z,98185.18
2018-10-07T01:42:09.546Z,98188.04
2018-10-07T01:44:39.978Z,98192.69
2018-10-07T01:47:14.235Z,98191.25
2018-10-07T01:49:44.782Z,98195.59
2018-10-07T01:52:15.345Z,98195.96
2018-10-07T01:54:45.979Z,98193.00
2018-10-07T01:57:16.496Z,98191.94
2018-10-07T01:59:46.953Z,98195.78
2018-10-07T02:02:19.017Z,98191.34
2018-10-07T02:04:49.636Z,98188.62
2018-10-07T02:07:20.148Z,98191.77
2018-10-07T02:09:51.036Z,98186.02
2018-10-07T02:12:22.205Z,98189.17
2018-10-07T02:14:52.771Z,98181.88
2018-10-07T02:17:23.261Z,98180.95
2018-10-07T02:19:53.961Z,98175.16
2018-10-07T02:22:24.473Z,98168.88
2018-10-07T02:24:55.020Z,98172.95
2018-10-07T02:27:27.216Z,98166.97
2018-10-07T02:29:57.744Z,98170.96
2018-10-07T02:32:28.210Z,98158.33
2018-10-07T02:34:58.739Z,98155.81
2018-10-07T02:37:29.231Z,98152.70
2018-10-07T02:39:59.731Z,98148.13
2018-10-07T02:42:30.252Z,98156.25
2018-10-07T02:45:00.799Z,98158.59
2018-10-07T02:47:31.479Z,98150.16
2018-10-07T02:50:02.227Z,98146.72
2018-10-07T02:52:37.710Z,98147.48
2018-10-07T02:55:08.272Z,98148.78
2018-10-07T02:57:39.064Z,98151.77
2018-10-07T03:00:09.605Z,98148.33
2018-10-07T03:02:40.199Z,98151.30
2018-10-07T03:05:10.833Z,98144.81
2018-10-07T03:07:41.616Z,98147.80
2018-10-07T03:10:12.390Z,98148.27
2018-10-07T03:12:43.182Z,98148.51
2018-10-07T03:15:13.705Z,98144.02
2018-10-07T03:17:44.571Z,98135.50
2018-10-07T03:20:16.072Z,98142.72
2018-10-07T03:22:49.397Z,98144.61
2018-10-07T03:25:19.876Z,98142.80
2018-10-07T03:27:51.585Z,98144.34
2018-10-07T03:30:22.108Z,98142.28
2018-10-07T03:32:52.894Z,98140.38
2018-10-07T03:35:23.432Z,98138.74
2018-10-07T03:37:54.808Z,98143.02
2018-10-07T03:40:31.029Z,98138.77
2018-10-07T03:43:01.671Z,98127.08
2018-10-07T03:45:32.159Z,98127.26
2018-10-07T03:48:02.918Z,98120.04
2018-10-07T03:50:33.362Z,98124.22
2018-10-07T03:53:03.970Z,98117.00
2018-10-07T03:55:34.536Z,98122.91
2018-10-07T03:58:07.785Z,98114.95
2018-10-07T04:00:38.400Z,98118.16
2018-10-07T04:03:10.411Z,98118.39
2018-10-07T04:05:40.922Z,98112.61
2018-10-07T04:08:12.999Z,98109.89
2018-10-07T04:10:43.473Z,98110.74
2018-10-07T04:13:13.947Z,98109.42
2018-10-07T04:15:44.397Z,98108.28
2018-10-07T04:18:14.970Z,98108.27
2018-10-07T04:20:45.638Z,98108.28
2018-10-07T04:23:16.059Z,98098.26
2018-10-07T04:25:46.468Z,98108.91
2018-10-07T04:28:17.182Z,98114.95
2018-10-07T04:30:47.913Z,98117.57
2018-10-07T04:33:18.424Z,98107.62
2018-10-07T04:35:48.940Z,98111.27
2018-10-07T04:38:19.459Z,98115.80
2018-10-07T04:40:49.999Z,98112.73
2018-10-07T04:43:20.499Z,98109.63
2018-10-07T04:45:50.949Z,98115.80
2018-10-07T04:48:21.784Z,98112.61
2018-10-07T04:50:52.272Z,98112.44
2018-10-07T04:53:22.761Z,98107.75
2018-10-07T04:55:53.217Z,98107.80
2018-10-07T04:58:23.727Z,98112.76
2018-10-07T05:00:54.453Z,98091.22
2018-10-07T05:03:25.183Z,98110.72
2018-10-07T05:05:55.921Z,98114.88
2018-10-07T05:08:26.749Z,98109.17
2018-10-07T05:11:02.793Z,98105.98
2018-10-07T05:13:58.388Z,98112.27
2018-10-07T05:21:53.466Z,98109.55
2018-10-07T05:29:43.162Z,98111.61
2018-10-07T05:32:13.701Z,98115.27
2018-10-07T05:34:44.272Z,98121.31
2018-10-07T05:37:14.792Z,98120.97
2018-10-07T05:39:47.494Z,98116.95
2018-10-07T05:42:18.021Z,98120.89
2018-10-07T05:44:51.629Z,98117.92
2018-10-07T05:47:25.139Z,98115.94
2018-10-07T05:49:55.614Z,98120.19
2018-10-07T05:52:26.096Z,98124.25
2018-10-07T05:54:56.749Z,98121.98
2018-10-07T05:57:27.466Z,98124.93
2018-10-07T05:59:58.442Z,98131.22
2018-10-07T06:02:29.911Z,98130.30
2018-10-07T06:05:01.324Z,98128.99
2018-10-07T06:07:32.200Z,98131.94
2018-10-07T06:10:02.782Z,98132.87
2018-10-07T06:12:34.128Z,98130.05
2018-10-07T06:15:39.053Z,98132.77
2018-10-07T06:18:09.935Z,98131.84
2018-10-07T06:20:40.581Z,98127.94
2018-10-07T06:23:11.186Z,98132.55
2018-10-07T06:25:41.700Z,98133.86
2018-10-07T06:28:12.586Z,98131.38
2018-10-07T06:30:43.745Z,98133.15
2018-10-07T06:33:14.332Z,98131.94
2018-10-07T06:35:47.459Z,98132.31
2018-10-07T06:38:17.930Z,98141.52
2018-10-07T06:40:53.081Z,98137.11
2018-10-07T06:43:24.854Z,98143.28
2018-10-07T06:45:55.434Z,98138.57
2018-10-07T06:48:26.100Z,98146.97
2018-10-07T06:50:56.655Z,98145.83
2018-10-07T06:53:28.401Z,98145.73
2018-10-07T06:55:58.890Z,98144.30
2018-10-07T06:58:29.397Z,98147.28
2018-10-07T07:01:17.858Z,98098.20
2018-10-07T07:03:48.353Z,98143.00
2018-10-07T07:06:18.999Z,98149.04
2018-10-07T07:08:50.446Z,98148.27
2018-10-07T07:11:23.730Z,98137.62
2018-10-07T07:13:56.697Z,98140.92
2018-10-07T07:16:27.185Z,98143.08
2018-10-07T07:19:03.036Z,98138.91
2018-10-07T07:21:33.604Z,98145.19
2018-10-07T07:24:05.711Z,98141.28
2018-10-07T07:26:36.249Z,98144.97
2018-10-07T07:29:06.837Z,98148.98
2018-10-07T07:31:39.049Z,98142.45
2018-10-07T07:34:12.093Z,98143.18
2018-10-07T07:36:43.812Z,98144.34
2018-10-07T07:39:20.403Z,98136.63
2018-10-07T07:41:53.954Z,98145.19
2018-10-07T07:44:24.479Z,98144.58
2018-10-07T07:46:54.873Z,98134.61
2018-10-07T07:49:26.532Z,98142.67
2018-10-07T07:51:57.551Z,98141.95
2018-10-07T07:54:28.179Z,98136.40
2018-10-07T07:56:58.782Z,98136.17
2018-10-07T07:59:29.270Z,98134.16
2018-10-07T08:01:59.834Z,98130.62
2018-10-07T08:04:30.393Z,98130.83
2018-10-07T08:07:00.881Z,98130.58
2018-10-07T08:09:31.533Z,98130.58
2018-10-07T08:12:02.204Z,98128.52
2018-10-07T08:14:32.786Z,98125.44
2018-10-07T08:17:04.356Z,98121.55
2018-10-07T08:19:34.772Z,98126.77
2018-10-07T08:22:05.260Z,98117.28
2018-10-07T08:24:35.730Z,98118.08
2018-10-07T08:27:07.050Z,98118.66
2018-10-07T08:29:37.592Z,98121.06
2018-10-07T08:32:08.225Z,98124.23
2018-10-07T08:34:38.631Z,98123.80
2018-10-07T08:37:10.053Z,98117.14
2018-10-07T08:39:40.554Z,98124.34
2018-10-07T08:42:11.090Z,98124.92
2018-10-07T08:44:41.638Z,98124.01
2018-10-07T08:47:12.206Z,98115.03
2018-10-07T08:49:42.840Z,98120.32
2018-10-07T08:52:13.425Z,98113.78
2018-10-07T08:54:45.629Z,98116.30
2018-10-07T08:57:16.138Z,98106.92
2018-10-07T08:59:46.681Z,98113.80
2018-10-07T09:02:18.141Z,98114.56
2018-10-07T09:04:50.322Z,98121.95
2018-10-07T09:07:20.784Z,98124.70
2018-10-07T09:09:51.171Z,98121.53
2018-10-07T09:12:21.747Z,98120.50
2018-10-07T09:14:52.410Z,98115.17
2018-10-07T09:17:22.792Z,98111.83
2018-10-07T09:19:54.121Z,98115.30
2018-10-07T09:27:25.738Z,98116.30
2018-10-07T09:29:56.420Z,98107.27
2018-10-07T09:32:27.061Z,98108.84
2018-10-07T09:34:57.458Z,98110.58
2018-10-07T09:37:27.898Z,98110.11
2018-10-07T09:39:58.398Z,98096.95
2018-10-07T09:42:28.854Z,98100.64
2018-10-07T09:45:00.021Z,98099.43
2018-10-07T09:47:30.643Z,98099.05
2018-10-07T09:50:01.256Z,98090.60
2018-10-07T09:52:32.325Z,98096.52
2018-10-07T09:55:02.826Z,98089.46
2018-10-07T09:57:33.132Z,98092.20
2018-10-07T10:00:03.557Z,98086.69
2018-10-07T10:02:34.170Z,98082.38
2018-10-07T10:05:05.105Z,98085.27
2018-10-07T10:07:35.584Z,98073.93
2018-10-07T10:10:06.090Z,98074.07
2018-10-07T10:12:36.504Z,98075.31
2018-10-07T10:15:07.525Z,98074.94
2018-10-07T10:17:45.295Z,98077.12
2018-10-07T10:20:17.248Z,98071.30
2018-10-07T10:22:57.658Z,98072.82
2018-10-07T10:25:40.823Z,98062.78
2018-10-07T10:28:24.442Z,98065.81
2018-10-07T10:31:31.464Z,98065.95
2018-10-07T10:34:07.111Z,98059.01
2018-10-07T10:36:42.561Z,98063.27
2018-10-07T10:39:23.511Z,98060.81
2018-10-07T10:42:00.781Z,98055.06
2018-10-07T10:44:41.020Z,98052.68
2018-10-07T10:47:17.538Z,98050.08
2018-10-07T10:52:06.785Z,98049.30
2018-10-07T10:54:47.130Z,98044.38
2018-10-07T10:57:32.664Z,98042.46
2018-10-07T11:00:06.554Z,98046.20
2018-10-07T11:02:44.645Z,98040.16
2018-10-07T11:05:28.702Z,98036.38
2018-10-07T11:08:21.862Z,98041.11
2018-10-07T11:11:02.810Z,98031.38
2018-10-07T11:13:51.471Z,98031.73
2018-10-07T11:16:25.517Z,98026.69
2018-10-07T11:19:00.849Z,98024.78
2018-10-07T11:21:41.956Z,98032.84
2018-10-07T11:24:18.640Z,98022.45
2018-10-07T11:27:44.964Z,98024.48
2018-10-07T11:30:27.233Z,98019.83
2018-10-07T11:35:11.037Z,98021.06
2018-10-07T11:37:48.678Z,98016.06
2018-10-07T11:41:28.674Z,98023.81
2018-10-07T11:44:04.525Z,98025.03
2018-10-07T11:46:57.727Z,98023.04
2018-10-07T11:49:35.548Z,98016.20
2018-10-07T11:53:16.314Z,98006.67
2018-10-07T11:55:46.772Z,98004.66
2018-10-07T11:58:17.243Z,98005.42
2018-10-07T12:00:47.657Z,98005.34
2018-10-07T12:03:18.083Z,98008.90
2018-10-07T12:05:48.456Z,98012.06
2018-10-07T12:08:19.043Z,98010.31
2018-10-07T12:10:49.459Z,98003.98
2018-10-07T12:13:20.072Z,98003.48
2018-10-07T12:15:50.438Z,98003.56
2018-10-07T12:18:20.941Z,97995.91
2018-10-07T12:20:52.491Z,97987.31
2018-10-07T12:23:23.663Z,97991.00
2018-10-07T12:25:54.123Z,97999.86
2018-10-07T12:28:24.662Z,97994.38
2018-10-07T12:30:55.075Z,97992.47
2018-10-07T12:33:25.743Z,97997.81
2018-10-07T12:35:56.126Z,97987.57
2018-10-07T12:38:26.678Z,97983.66
2018-10-07T12:40:58.058Z,97983.47
2018-10-07T12:43:28.518Z,97974.00
2018-10-07T12:45:59.037Z,97977.73
2018-10-07T12:48:29.541Z,97982.44
2018-10-07T12:50:59.997Z,97977.10
2018-10-07T12:53:30.667Z,97981.58
2018-10-07T12:56:01.086Z,97971.74
2018-10-07T12:58:31.421Z,97971.07
2018-10-07T13:01:01.882Z,97967.40
2018-10-07T13:03:32.310Z,97973.55
2018-10-07T13:06:03.491Z,97970.45
2018-10-07T13:08:33.881Z,97964.61
2018-10-07T13:11:04.412Z,97964.11
2018-10-07T13:13:34.845Z,97965.86
2018-10-07T13:16:05.314Z,97961.09
2018-10-07T13:18:35.734Z,97963.70
2018-10-07T13:21:06.204Z,97949.53
2018-10-07T13:23:36.819Z,97950.50
2018-10-07T13:26:07.385Z,97949.95
2018-10-07T13:28:38.106Z,97950.50
2018-10-07T13:31:09.114Z,97949.73
2018-10-07T13:33:39.760Z,97941.97
2018-10-07T13:36:10.130Z,97945.88
2018-10-07T13:38:40.577Z,97946.70
2018-10-07T13:41:11.185Z,97936.55
2018-10-07T13:43:41.735Z,97940.09
2018-10-07T13:46:12.193Z,97935.09
2018-10-07T13:48:42.698Z,97932.16
2018-10-07T13:51:13.189Z,97932.39
2018-10-07T13:53:44.030Z,97928.72
2018-10-07T13:56:14.590Z,97925.83
2018-10-07T13:58:45.078Z,97924.98
2018-10-07T14:01:15.521Z,97924.38
2018-10-07T14:03:46.003Z,97932.76
2018-10-07T14:06:16.452Z,97930.44
2018-10-07T14:08:47.005Z,97923.48
2018-10-07T14:11:17.436Z,97922.76
2018-10-07T14:13:48.185Z,97921.73
2018-10-07T14:16:18.618Z,97925.92
2018-10-07T14:18:49.098Z,97924.86
2018-10-07T14:21:19.569Z,97925.65
2018-10-07T14:23:49.970Z,97921.41
2018-10-07T14:26:20.430Z,97922.34
2018-10-07T14:28:50.856Z,97920.09
2018-10-07T14:31:21.333Z,97924.25
2018-10-07T14:33:53.133Z,97916.33
2018-10-07T14:36:23.642Z,97918.70
2018-10-07T14:38:54.091Z,97909.89
2018-10-07T14:41:24.614Z,97917.67
2018-10-07T14:43:55.020Z,97910.61
2018-10-07T14:46:25.515Z,97909.62
2018-10-07T14:48:56.011Z,97911.48
2018-10-07T14:51:26.448Z,97910.33
2018-10-07T14:53:57.237Z,97907.48
2018-10-07T14:56:27.739Z,97905.37
2018-10-07T14:58:58.179Z,97908.78
2018-10-07T15:01:28.789Z,97904.64
2018-10-07T15:03:59.248Z,97898.73
2018-10-07T15:06:29.734Z,97909.16
2018-10-07T15:09:00.144Z,97907.80
2018-10-07T15:11:30.521Z,97911.18
2018-10-07T15:14:01.123Z,97911.62
2018-10-07T15:16:31.565Z,97910.72
2018-10-07T15:19:02.025Z,97913.28
2018-10-07T15:21:32.390Z,97911.14
2018-10-07T15:24:02.872Z,97914.55
2018-10-07T15:26:33.312Z,97913.15
2018-10-07T15:29:04.656Z,97909.56
2018-10-07T15:31:35.162Z,97912.23
2018-10-07T15:34:05.591Z,97910.00
2018-10-07T15:36:36.013Z,97912.27
2018-10-07T15:39:08.091Z,97908.97
2018-10-07T15:41:38.514Z,97912.37
2018-10-07T15:44:08.974Z,97913.15
2018-10-07T15:46:39.385Z,97912.45
2018-10-07T15:49:09.784Z,97907.27
2018-10-07T15:51:40.157Z,97914.02
2018-10-07T15:54:11.114Z,97919.00
2018-10-07T15:56:41.501Z,97922.45
2018-10-07T15:59:11.871Z,97925.15
2018-10-07T16:01:42.280Z,97920.30
2018-10-07T16:04:12.676Z,97918.56
2018-10-07T16:06:43.161Z,97918.13
2018-10-07T16:09:13.602Z,97919.86
2018-10-07T16:11:44.019Z,97918.44
2018-10-07T16:14:15.301Z,97923.98
2018-10-07T16:16:45.634Z,97921.94
2018-10-07T16:19:16.127Z,97922.55
2018-10-07T16:21:46.572Z,97922.41
2018-10-07T16:24:17.023Z,97924.05
2018-10-07T16:26:47.391Z,97925.15
2018-10-07T16:29:17.819Z,97923.02
2018-10-07T16:31:48.261Z,97925.72
2018-10-07T16:34:19.749Z,97926.55
2018-10-07T16:36:50.269Z,97923.45
2018-10-07T16:39:20.664Z,97927.63
2018-10-07T16:41:50.983Z,97926.72
2018-10-07T16:44:21.472Z,97923.52
2018-10-07T16:48:16.061Z,97927.19
2018-10-07T16:50:46.542Z,97925.42
2018-10-07T16:53:16.929Z,97924.58
2018-10-07T16:55:47.643Z,97922.34
2018-10-07T16:58:17.989Z,97922.61
2018-10-07T17:00:48.351Z,97918.93
2018-10-07T17:03:18.818Z,97922.23
2018-10-07T17:05:49.265Z,97924.27
2018-10-07T17:08:19.627Z,97925.45
2018-10-07T17:10:50.202Z,97923.17
2018-10-07T17:13:20.839Z,97923.08
2018-10-07T17:15:51.577Z,97919.77
2018-10-07T17:18:21.952Z,97917.63
2018-10-07T17:20:52.434Z,97925.34
2018-10-07T17:23:22.753Z,97928.08
2018-10-07T17:25:53.169Z,97922.76
2018-10-07T17:28:23.618Z,97922.30
2018-10-07T17:30:54.049Z,97922.95
2018-10-07T17:33:24.501Z,97924.17
2018-10-07T17:35:55.126Z,97920.02
2018-10-07T17:38:25.552Z,97915.14
2018-10-07T17:40:56.070Z,97921.21
2018-10-07T17:43:26.488Z,97923.93
2018-10-07T17:45:56.916Z,97923.22
2018-10-07T17:48:27.355Z,97933.52
2018-10-07T17:50:57.712Z,97923.69
2018-10-07T17:53:28.178Z,97921.55
2018-10-07T17:55:58.772Z,97919.55
2018-10-07T17:58:29.115Z,97921.93
2018-10-07T18:00:59.593Z,97922.95
2018-10-07T18:03:30.038Z,97925.70
2018-10-07T18:06:00.470Z,97925.23
2018-10-07T18:08:30.818Z,97922.76
2018-10-07T18:11:01.193Z,97925.23
2018-10-07T18:13:31.544Z,97926.05
2018-10-07T18:16:02.074Z,97918.71
2018-10-07T18:18:32.568Z,97921.78
2018-10-07T18:21:03.083Z,97920.86
2018-10-07T18:23:33.540Z,97923.66
2018-10-07T18:26:04.016Z,97922.50
2018-10-07T18:28:34.532Z,97920.96
2018-10-07T18:31:04.981Z,97918.63
2018-10-07T18:33:35.489Z,97925.36
2018-10-07T18:36:06.054Z,97923.09
2018-10-07T18:38:36.460Z,97930.68
2018-10-07T18:41:06.996Z,97923.23
2018-10-07T18:43:37.521Z,97929.95
2018-10-07T18:46:07.918Z,97927.25
2018-10-07T18:48:38.303Z,97931.75
2018-10-07T18:51:08.756Z,97933.66
2018-10-07T18:53:39.262Z,97932.12
2018-10-07T18:56:10.865Z,97932.12
2018-10-07T18:58:44.189Z,97936.83
2018-10-07T19:01:14.609Z,97935.16
2018-10-07T19:03:45.117Z,97938.27
2018-10-07T19:06:15.612Z,97943.37
2018-10-07T19:08:46.023Z,97934.72
2018-10-07T19:11:16.401Z,97939.56
2018-10-07T19:13:46.761Z,97942.07
2018-10-07T19:16:17.212Z,97939.55
2018-10-07T19:18:47.559Z,97935.98
2018-10-07T19:21:18.133Z,97899.92
2018-10-07T19:23:48.425Z,97934.13
2018-10-07T19:26:18.840Z,97936.73
2018-10-07T19:28:49.205Z,97935.66
2018-10-07T19:31:19.636Z,97935.42
2018-10-07T19:33:50.022Z,97936.03
2018-10-07T19:36:20.534Z,97932.33
2018-10-07T19:38:50.945Z,97937.67
2018-10-07T19:41:21.457Z,97931.17
2018-10-07T19:43:51.898Z,97928.80
2018-10-07T19:46:22.613Z,97924.77
2018-10-07T19:48:53.077Z,97929.97
2018-10-07T19:51:23.566Z,97920.41
2018-10-07T19:53:54.142Z,97923.95
2018-10-07T19:56:24.661Z,97926.69
2018-10-07T19:58:55.094Z,97921.23
2018-10-07T20:01:25.477Z,97913.42
2018-10-07T20:03:55.867Z,97912.48
2018-10-07T20:06:26.298Z,97913.91
2018-10-07T20:08:56.687Z,97912.84
2018-10-07T20:11:27.085Z,97915.31
2018-10-07T20:13:57.518Z,97917.45
2018-10-07T20:16:28.041Z,97918.63
2018-10-07T20:18:58.513Z,97913.05
2018-10-07T20:21:28.924Z,97915.55
2018-10-07T20:23:59.486Z,97915.18
2018-10-07T20:26:30.032Z,97913.05
2018-10-07T20:29:00.457Z,97917.19
2018-10-07T20:31:30.898Z,97914.71
2018-10-07T20:34:01.510Z,97907.97
2018-10-07T20:36:33.311Z,97905.02
2018-10-07T20:39:04.158Z,97906.45
2018-10-07T20:41:34.619Z,97898.16
2018-10-07T20:44:05.236Z,97904.31
2018-10-07T20:46:35.681Z,97902.53
2018-10-07T20:49:06.238Z,97894.48
2018-10-07T20:51:36.745Z,97898.27
2018-10-07T20:54:07.314Z,97902.67
2018-10-07T20:56:37.913Z,97900.87
2018-10-07T20:59:08.366Z,97891.99
2018-10-07T21:01:38.806Z,97890.81
2018-10-07T21:04:09.393Z,97891.66
2018-10-07T21:06:39.877Z,97893.20
2018-10-07T21:09:12.364Z,97895.10
2018-10-07T21:11:42.801Z,97893.55
2018-10-07T21:14:13.243Z,97898.63
2018-10-07T21:21:46.018Z,97896.50
2018-10-07T21:24:16.608Z,97895.69
2018-10-07T21:26:47.074Z,97888.72
2018-10-07T21:29:17.522Z,97891.44
2018-10-07T21:31:47.927Z,97895.09
2018-10-07T21:34:18.398Z,97889.66
2018-10-07T21:36:48.858Z,97895.91
2018-10-07T21:39:19.440Z,97887.30
2018-10-07T21:41:49.828Z,97894.61
2018-10-07T21:44:20.237Z,97891.66
2018-10-07T21:46:50.851Z,97889.40
2018-10-07T21:49:21.396Z,97890.36
2018-10-07T21:51:51.921Z,97889.77
2018-10-07T21:54:22.350Z,97885.49
2018-10-07T21:56:52.777Z,97882.89
2018-10-07T21:59:23.409Z,97889.30
2018-10-07T22:01:53.954Z,97884.69
2018-10-07T22:04:24.502Z,97885.86
2018-10-07T22:06:55.001Z,97887.39
2018-10-07T22:09:25.466Z,97882.42
2018-10-07T22:11:55.934Z,97889.30
2018-10-07T22:14:26.396Z,97890.95
2018-10-07T22:16:56.838Z,97893.92
2018-10-07T22:19:27.259Z,97889.64
2018-10-07T22:21:57.728Z,97890.61
2018-10-07T22:24:28.209Z,97883.86
2018-10-07T22:26:58.713Z,97881.72
2018-10-07T22:29:29.185Z,97882.32
2018-10-07T22:31:59.554Z,97879.47
2018-10-07T22:34:30.116Z,97883.77
2018-10-07T22:37:00.571Z,97881.61
2018-10-07T22:39:31.133Z,97878.30
2018-10-07T22:42:01.702Z,97879.02
2018-10-07T22:44:32.176Z,97875.47
2018-10-07T22:47:02.768Z,97875.23
2018-10-07T22:49:33.181Z,97877.48
2018-10-07T22:52:03.661Z,97880.30
2018-10-07T22:54:34.092Z,97878.66
2018-10-07T22:57:04.590Z,97881.25
2018-10-07T22:59:35.132Z,97873.45
2018-10-07T23:02:05.558Z,97873.64
2018-10-07T23:04:35.961Z,97872.09
2018-10-07T23:07:06.327Z,97871.11
2018-10-07T23:09:36.861Z,97866.59
2018-10-07T23:12:07.390Z,97868.98
2018-10-07T23:14:37.813Z,97861.64
2018-10-07T23:17:08.194Z,97862.94
2018-10-07T23:19:38.700Z,97852.17
2018-10-07T23:22:09.078Z,97850.75
2018-10-07T23:24:39.671Z,97851.08
2018-10-07T23:27:10.185Z,97848.81
2018-10-07T23:29:40.651Z,97849.98
2018-10-07T23:32:11.146Z,97858.31
2018-10-07T23:34:41.569Z,97855.00
2018-10-07T23:37:12.004Z,97854.55
2018-10-07T23:39:42.698Z,97854.41
2018-10-07T23:42:13.248Z,97850.02
2018-10-07T23:44:43.765Z,97852.09
2018-10-07T23:47:14.177Z,97850.66
2018-10-07T23:49:44.635Z,97847.07
2018-10-07T23:52:15.170Z,97847.16
2018-10-07T23:54:45.567Z,97845.73
2018-10-07T23:57:16.127Z,97849.53
2018-10-07T23:59:46.858Z,97845.73
